地図

経路データ

SID SEASON NUMBER BASIN SUBBASIN NAME ISO_TIME NATURE LAT LON WMO_WIND WMO_PRES WMO_AGENCY TRACK_TYPE DIST2LAND LANDFALL IFLAG USA_AGENCY USA_ATCF_ID USA_LAT USA_LON USA_RECORD USA_STATUS USA_WIND USA_PRES USA_SSHS USA_R34_NE USA_R34_SE USA_R34_SW USA_R34_NW USA_R50_NE USA_R50_SE USA_R50_SW USA_R50_NW USA_R64_NE USA_R64_SE USA_R64_SW USA_R64_NW USA_POCI USA_ROCI USA_RMW USA_EYE TOKYO_LAT TOKYO_LON TOKYO_GRADE TOKYO_WIND TOKYO_PRES TOKYO_R50_DIR TOKYO_R50_LONG TOKYO_R50_SHORT TOKYO_R30_DIR TOKYO_R30_LONG TOKYO_R30_SHORT TOKYO_LAND CMA_LAT CMA_LON CMA_CAT CMA_WIND CMA_PRES HKO_LAT HKO_LON HKO_CAT HKO_WIND HKO_PRES NEWDELHI_LAT NEWDELHI_LON NEWDELHI_GRADE NEWDELHI_WIND NEWDELHI_PRES NEWDELHI_CI NEWDELHI_DP NEWDELHI_POCI REUNION_LAT REUNION_LON REUNION_TYPE REUNION_WIND REUNION_PRES REUNION_TNUM REUNION_CI REUNION_RMW REUNION_R34_NE REUNION_R34_SE REUNION_R34_SW REUNION_R34_NW REUNION_R50_NE REUNION_R50_SE REUNION_R50_SW REUNION_R50_NW REUNION_R64_NE REUNION_R64_SE REUNION_R64_SW REUNION_R64_NW BOM_LAT BOM_LON BOM_TYPE BOM_WIND BOM_PRES BOM_TNUM BOM_CI BOM_RMW BOM_R34_NE BOM_R34_SE BOM_R34_SW BOM_R34_NW BOM_R50_NE BOM_R50_SE BOM_R50_SW BOM_R50_NW BOM_R64_NE BOM_R64_SE BOM_R64_SW BOM_R64_NW BOM_ROCI BOM_POCI BOM_EYE BOM_POS_METHOD BOM_PRES_METHOD NADI_LAT NADI_LON NADI_CAT NADI_WIND NADI_PRES WELLINGTON_LAT WELLINGTON_LON WELLINGTON_WIND WELLINGTON_PRES DS824_LAT DS824_LON DS824_STAGE DS824_WIND DS824_PRES TD9636_LAT TD9636_LON TD9636_STAGE TD9636_WIND TD9636_PRES TD9635_LAT TD9635_LON TD9635_WIND TD9635_PRES TD9635_ROCI NEUMANN_LAT NEUMANN_LON NEUMANN_CLASS NEUMANN_WIND NEUMANN_PRES MLC_LAT MLC_LON MLC_CLASS MLC_WIND MLC_PRES USA_GUST BOM_GUST BOM_GUST_PER REUNION_GUST REUNION_GUST_PER USA_SEAHGT USA_SEARAD_NE USA_SEARAD_SE USA_SEARAD_SW USA_SEARAD_NW STORM_SPEED STORM_DIR
1984244N13319 1984 72 NA NA BERTHA 1984-08-30 12:00:00 TS 13.1000 -41.0000 25 1009 hurdat_atl main 1500 1459 O_____________ hurdat_atl AL071984 13.1000 -41.0000 TD 25 1009 -1 12 279
1984244N13319 1984 72 NA NA BERTHA 1984-08-30 15:00:00 TS 13.1877 -41.5974 main 1459 1419 P_____________ AL071984 13.1877 -41.5974 TD 25 1009 -1 12 280
1984244N13319 1984 72 NA NA BERTHA 1984-08-30 18:00:00 TS 13.3000 -42.2000 25 1009 hurdat_atl main 1419 1389 O_____________ hurdat_atl AL071984 13.3000 -42.2000 TD 25 1009 -1 12 283
1984244N13319 1984 72 NA NA BERTHA 1984-08-30 21:00:00 TS 13.4624 -42.8076 main 1390 1362 P_____________ AL071984 13.4624 -42.8076 TD 27 1008 -1 12 289
1984244N13319 1984 72 NA NA BERTHA 1984-08-31 00:00:00 TS 13.7000 -43.4000 30 1008 hurdat_atl main 1364 1352 O_____________ hurdat_atl AL071984 13.7000 -43.4000 TD 30 1008 -1 13 297
1984244N13319 1984 72 NA NA BERTHA 1984-08-31 03:00:00 TS 14.0425 -43.9798 main 1349 1348 P_____________ AL071984 14.0425 -43.9798 TD 30 1008 -1 13 303
1984244N13319 1984 72 NA NA BERTHA 1984-08-31 06:00:00 TS 14.4000 -44.5000 30 1008 hurdat_atl main 1354 1348 O_____________ hurdat_atl AL071984 14.4000 -44.5000 TD 30 1008 -1 11 304
1984244N13319 1984 72 NA NA BERTHA 1984-08-31 09:00:00 TS 14.6421 -44.8856 main 1348 1343 P_____________ AL071984 14.6421 -44.8856 TD 32 1007 -1 9 303
1984244N13319 1984 72 NA NA BERTHA 1984-08-31 12:00:00 TS 14.9000 -45.3000 35 1007 hurdat_atl main 1348 1338 O_____________ hurdat_atl AL071984 14.9000 -45.3000 TS 35 1007 0 12 303
1984244N13319 1984 72 NA NA BERTHA 1984-08-31 15:00:00 TS 15.2927 -45.9272 main 1347 1339 P_____________ AL071984 15.2927 -45.9272 TS 35 1007 0 15 303
1984244N13319 1984 72 NA NA BERTHA 1984-08-31 18:00:00 TS 15.7000 -46.6000 35 1007 hurdat_atl main 1346 1340 O_____________ hurdat_atl AL071984 15.7000 -46.6000 TS 35 1007 0 14 301
1984244N13319 1984 72 NA NA BERTHA 1984-08-31 21:00:00 TS 16.0073 -47.1729 main 1345 1345 P_____________ AL071984 16.0073 -47.1729 TS 35 1007 0 12 300
1984244N13319 1984 72 NA NA BERTHA 1984-09-01 00:00:00 TS 16.3000 -47.7000 35 1007 hurdat_atl main 1351 1347 O_____________ hurdat_atl AL071984 16.3000 -47.7000 TS 35 1007 0 12 303
1984244N13319 1984 72 NA NA BERTHA 1984-09-01 03:00:00 TS 16.6574 -48.2225 main 1371 1367 P_____________ AL071984 16.6574 -48.2225 TS 35 1007 0 12 306
1984244N13319 1984 72 NA NA BERTHA 1984-09-01 06:00:00 TS 17.0000 -48.7000 35 1007 hurdat_atl main 1379 1375 O_____________ hurdat_atl AL071984 17.0000 -48.7000 TS 35 1007 0 10 305
1984244N13319 1984 72 NA NA BERTHA 1984-09-01 09:00:00 TS 17.2497 -49.1005 main 1381 1381 P_____________ AL071984 17.2497 -49.1005 TS 32 1007 -1 9 303
1984244N13319 1984 72 NA NA BERTHA 1984-09-01 12:00:00 TS 17.5000 -49.5000 30 1008 hurdat_atl main 1395 1391 O_____________ hurdat_atl AL071984 17.5000 -49.5000 TD 30 1008 -1 10 303
1984244N13319 1984 72 NA NA BERTHA 1984-09-01 15:00:00 TS 17.8126 -50.0001 main 1408 1407 P_____________ AL071984 17.8126 -50.0001 TD 30 1008 -1 12 306
1984244N13319 1984 72 NA NA BERTHA 1984-09-01 18:00:00 TS 18.2000 -50.5000 30 1008 hurdat_atl main 1407 1399 O_____________ hurdat_atl AL071984 18.2000 -50.5000 TD 30 1008 -1 12 315
1984244N13319 1984 72 NA NA BERTHA 1984-09-01 21:00:00 TS 18.6923 -50.9151 main 1407 1399 P_____________ AL071984 18.6923 -50.9151 TD 30 1008 -1 13 323
1984244N13319 1984 72 NA NA BERTHA 1984-09-02 00:00:00 TS 19.2000 -51.3000 30 1008 hurdat_atl main 1410 1409 O_____________ hurdat_atl AL071984 19.2000 -51.3000 TD 30 1008 -1 12 322
1984244N13319 1984 72 NA NA BERTHA 1984-09-02 03:00:00 TS 19.6148 -51.6854 main 1409 1409 P_____________ AL071984 19.6148 -51.6854 TD 30 1008 -1 11 317
1984244N13319 1984 72 NA NA BERTHA 1984-09-02 06:00:00 TS 20.0000 -52.1000 30 1009 hurdat_atl main 1411 1369 O_____________ hurdat_atl AL071984 20.0000 -52.1000 TD 30 1009 -1 12 307
1984244N13319 1984 72 NA NA BERTHA 1984-09-02 09:00:00 TS 20.3255 -52.6819 main 1369 1334 P_____________ AL071984 20.3255 -52.6819 TD 27 1009 -1 12 310
1984244N13319 1984 72 NA NA BERTHA 1984-09-02 12:00:00 TS 20.8000 -53.1000 25 1010 hurdat_atl main 1336 1336 O_____________ hurdat_atl AL071984 20.8000 -53.1000 TD 25 1010 -1 14 346
1984244N13319 1984 72 NA NA BERTHA 1984-09-02 15:00:00 TS 21.6699 -53.0488 main 1366 1366 P_____________ AL071984 21.6699 -53.0488 TD 25 1010 -1 18 9
1984244N13319 1984 72 NA NA BERTHA 1984-09-02 18:00:00 TS 22.6000 -52.8000 25 1010 hurdat_atl main 1412 1412 O_____________ hurdat_atl AL071984 22.6000 -52.8000 TD 25 1010 -1 16 13
1984244N13319 1984 72 NA NA BERTHA 1984-09-02 21:00:00 TS 23.2374 -52.6719 main 1443 1443 P_____________ AL071984 23.2374 -52.6719 TD 25 1010 -1 12 13
1984244N13319 1984 72 NA NA BERTHA 1984-09-03 00:00:00 TS 23.8000 -52.5000 25 1010 hurdat_atl main 1485 1485 O_____________ hurdat_atl AL071984 23.8000 -52.5000 TD 25 1010 -1 13 16
1984244N13319 1984 72 NA NA BERTHA 1984-09-03 03:00:00 TS 24.4645 -52.2819 main 1534 1534 P_____________ AL071984 24.4645 -52.2819 TD 25 1010 -1 14 23
1984244N13319 1984 72 NA NA BERTHA 1984-09-03 06:00:00 TS 25.1000 -51.9000 25 1010 hurdat_atl main 1599 1599 O_____________ hurdat_atl AL071984 25.1000 -51.9000 TD 25 1010 -1 15 39
1984244N13319 1984 72 NA NA BERTHA 1984-09-03 09:00:00 TS 25.6228 -51.2599 main 1677 1677 P_____________ AL071984 25.6228 -51.2599 TD 22 1011 -1 16 52
1984244N13319 1984 72 NA NA BERTHA 1984-09-03 12:00:00 TS 26.1000 -50.5000 20 1012 hurdat_atl main 1773 1773 O_____________ hurdat_atl AL071984 26.1000 -50.5000 TD 20 1012 -1 16 54
1984244N13319 1984 72 NA NA BERTHA 1984-09-03 15:00:00 TS 26.5848 -49.7917 main 1861 1861 P_____________ AL071984 26.5848 -49.7917 TD 20 1012 -1 16 51
1984244N13319 1984 72 NA NA BERTHA 1984-09-03 18:00:00 TS 27.1000 -49.1000 20 1012 hurdat_atl main 1948 1948 O_____________ hurdat_atl AL071984 27.1000 -49.1000 TD 20 1012 -1 16 47
1984244N13319 1984 72 NA NA BERTHA 1984-09-03 21:00:00 TS 27.6765 -48.4786 main 2031 2031 P_____________ AL071984 27.6765 -48.4786 TD 20 1012 -1 17 44
1984244N13319 1984 72 NA NA BERTHA 1984-09-04 00:00:00 TS 28.3000 -47.8000 20 1013 hurdat_atl main 2091 2040 O_____________ hurdat_atl AL071984 28.3000 -47.8000 TD 20 1013 -1 19 47
1984244N13319 1984 72 NA NA BERTHA 1984-09-04 03:00:00 TS 28.9730 -46.9159 main 2034 1992 P_____________ AL071984 28.9730 -46.9159 TD 20 1013 -1 20 50
1984244N13319 1984 72 NA NA BERTHA 1984-09-04 06:00:00 TS 29.6000 -46.0000 20 1013 hurdat_atl main 1992 1966 O_____________ hurdat_atl AL071984 29.6000 -46.0000 TD 20 1013 -1 18 53
1984244N13319 1984 72 NA NA BERTHA 1984-09-04 09:00:00 TS 30.0326 -45.2981 main 1969 1938 P_____________ AL071984 30.0326 -45.2981 TD 20 1013 -1 16 55
1984244N13319 1984 72 NA NA BERTHA 1984-09-04 12:00:00 TS 30.5000 -44.5000 20 1013 hurdat_atl main 1941 1910 O_____________ hurdat_atl AL071984 30.5000 -44.5000 TD 20 1013 -1 20 55
1984244N13319 1984 72 NA NA BERTHA 1984-09-04 15:00:00 TS 31.1844 -43.3649 main 1908 1879 P_____________ AL071984 31.1844 -43.3649 TD 20 1013 -1 26 55
1984244N13319 1984 72 NA NA BERTHA 1984-09-04 18:00:00 TS 32.0000 -42.0000 20 1013 hurdat_atl main 1883 O_____________ hurdat_atl AL071984 32.0000 -42.0000 TD 20 1013 -1 28 55

IBTrACS Databaseについて

本データベースは、米国NOAAが公開する1842年以降の世界の熱帯低気圧のベストトラックデータアーカイブInternational Best Track Archive for Climate Stewardship (IBTrACS)を、ウェブで閲覧しやすい形式に変換したものです。

最終更新日:2021-11-26